SARC Airport Information

Runway Information
Runway 2 Length 6890 ft width 148 ft Elevation 202 ft Threshold N/A Heading 8
Runway 20 Length 6890 ft Width 148 ft Elevation 199 ft Threshold N/A Heading 188
Airport Frequencies
Type TWR Name TWR Frequency 118.3 MHZ
Airport Navaids
Type NDB Name Corrientes Frequency 305 KHZ
Type VOR-DME Name Corrientes Frequency 115400 KHZ
Airport Weather Information & NOTAM
ADDS - METARS form results

(1112 UTC 23 September 2023)
Data provider http://aviationweather.gov/metar/data/
 
METAR text: SARC 231100Z 36008KT 4000 FU NSC 27/21 Q1004
Conditions at: SARC (CORRIENTES AIRPO, AR) observed 1100 UTC 23 September 2023
Temperature: 27.0°C (81°F)
Dewpoint: 21.0°C (70°F) [RH = 70%]
Pressure (altimeter): 29.65 inches Hg (1004.0 mb)
Winds: from the N (360 degrees) at 9 MPH (8 knots; 4.1 m/s)
Visibility: 2.49 miles (4.01 km)
Ceiling: at least 12,000 feet AGL
Clouds: sky clear below 12,000 feet AGL
Weather: FU  (smoke)